sensor_id;sensor_type;location;lat;lon;timestamp;temperature;humidity
11387;DHT22;5748;53.102;8.456;2023-02-28T00:01:11;7.90;46.50
11387;DHT22;5748;53.102;8.456;2023-02-28T00:03:38;8.00;46.40
11387;DHT22;5748;53.102;8.456;2023-02-28T00:06:07;7.90;46.50
11387;DHT22;5748;53.102;8.456;2023-02-28T00:08:35;8.00;46.70
11387;DHT22;5748;53.102;8.456;2023-02-28T00:11:34;8.00;46.70
11387;DHT22;5748;53.102;8.456;2023-02-28T00:14:03;8.00;47.20
11387;DHT22;5748;53.102;8.456;2023-02-28T00:16:30;8.00;46.50
11387;DHT22;5748;53.102;8.456;2023-02-28T00:18:57;8.00;46.40
11387;DHT22;5748;53.102;8.456;2023-02-28T00:21:24;8.00;46.50
11387;DHT22;5748;53.102;8.456;2023-02-28T00:23:51;8.70;47.10
11387;DHT22;5748;53.102;8.456;2023-02-28T00:26:19;8.40;46.80
11387;DHT22;5748;53.102;8.456;2023-02-28T00:28:48;8.10;46.60
11387;DHT22;5748;53.102;8.456;2023-02-28T00:31:15;8.10;46.80
11387;DHT22;5748;53.102;8.456;2023-02-28T00:34:11;8.10;46.70
11387;DHT22;5748;53.102;8.456;2023-02-28T00:36:45;8.10;47.30
11387;DHT22;5748;53.102;8.456;2023-02-28T00:39:15;8.10;46.90
11387;DHT22;5748;53.102;8.456;2023-02-28T00:42:07;8.20;46.70
11387;DHT22;5748;53.102;8.456;2023-02-28T00:59:45;4.70;44.70
11387;DHT22;5748;53.102;8.456;2023-02-28T01:02:13;8.00;47.50
11387;DHT22;5748;53.102;8.456;2023-02-28T01:04:41;8.50;47.20
11387;DHT22;5748;53.102;8.456;2023-02-28T01:07:08;8.00;46.80
11387;DHT22;5748;53.102;8.456;2023-02-28T01:09:35;8.00;46.90
11387;DHT22;5748;53.102;8.456;2023-02-28T01:12:39;8.00;47.20
11387;DHT22;5748;53.102;8.456;2023-02-28T01:15:10;8.00;47.70
11387;DHT22;5748;53.102;8.456;2023-02-28T01:17:37;8.00;47.20
11387;DHT22;5748;53.102;8.456;2023-02-28T01:20:05;8.30;47.20
11387;DHT22;5748;53.102;8.456;2023-02-28T01:22:34;8.00;47.10
11387;DHT22;5748;53.102;8.456;2023-02-28T01:25:01;8.00;47.30
11387;DHT22;5748;53.102;8.456;2023-02-28T01:27:28;8.00;47.20
11387;DHT22;5748;53.102;8.456;2023-02-28T01:29:55;8.00;47.10
11387;DHT22;5748;53.102;8.456;2023-02-28T01:32:24;8.00;47.20
11387;DHT22;5748;53.102;8.456;2023-02-28T01:34:51;8.00;47.30
11387;DHT22;5748;53.102;8.456;2023-02-28T01:37:18;8.00;47.20
11387;DHT22;5748;53.102;8.456;2023-02-28T01:39:49;8.00;47.30
11387;DHT22;5748;53.102;8.456;2023-02-28T01:42:16;8.60;47.80
11387;DHT22;5748;53.102;8.456;2023-02-28T01:45:19;8.00;47.30
11387;DHT22;5748;53.102;8.456;2023-02-28T01:47:55;8.00;48.10
11387;DHT22;5748;53.102;8.456;2023-02-28T01:50:28;8.00;47.60
11387;DHT22;5748;53.102;8.456;2023-02-28T01:53:00;8.00;47.60
11387;DHT22;5748;53.102;8.456;2023-02-28T01:55:30;8.00;47.50
11387;DHT22;5748;53.102;8.456;2023-02-28T01:58:01;7.90;47.40
11387;DHT22;5748;53.102;8.456;2023-02-28T02:00:29;7.90;47.50
11387;DHT22;5748;53.102;8.456;2023-02-28T02:03:17;7.90;47.50
11387;DHT22;5748;53.102;8.456;2023-02-28T02:05:45;7.90;48.10
11387;DHT22;5748;53.102;8.456;2023-02-28T02:08:16;7.90;47.50
11387;DHT22;5748;53.102;8.456;2023-02-28T02:10:45;7.90;47.60
11387;DHT22;5748;53.102;8.456;2023-02-28T02:13:34;7.90;47.70
11387;DHT22;5748;53.102;8.456;2023-02-28T02:16:48;7.90;48.00
11387;DHT22;5748;53.102;8.456;2023-02-28T02:19:54;7.90;48.10
11387;DHT22;5748;53.102;8.456;2023-02-28T02:25:53;7.90;48.10
11387;DHT22;5748;53.102;8.456;2023-02-28T02:28:46;7.90;47.80
11387;DHT22;5748;53.102;8.456;2023-02-28T02:31:50;7.80;48.30
11387;DHT22;5748;53.102;8.456;2023-02-28T02:34:34;7.80;48.00
11387;DHT22;5748;53.102;8.456;2023-02-28T02:37:18;7.80;48.00
11387;DHT22;5748;53.102;8.456;2023-02-28T02:39:59;7.80;48.10
11387;DHT22;5748;53.102;8.456;2023-02-28T02:42:34;10.90;49.70
11387;DHT22;5748;53.102;8.456;2023-02-28T02:45:09;8.60;49.20
11387;DHT22;5748;53.102;8.456;2023-02-28T02:47:40;7.70;47.40
11387;DHT22;5748;53.102;8.456;2023-02-28T02:50:14;8.20;48.50
11387;DHT22;5748;53.102;8.456;2023-02-28T02:52:46;7.70;48.10
11387;DHT22;5748;53.102;8.456;2023-02-28T02:55:18;7.70;48.00
11387;DHT22;5748;53.102;8.456;2023-02-28T02:57:50;8.30;48.40
11387;DHT22;5748;53.102;8.456;2023-02-28T03:00:23;7.70;48.10
11387;DHT22;5748;53.102;8.456;2023-02-28T03:02:54;7.70;48.10
11387;DHT22;5748;53.102;8.456;2023-02-28T03:05:26;7.70;48.00
11387;DHT22;5748;53.102;8.456;2023-02-28T03:08:03;8.50;48.90
11387;DHT22;5748;53.102;8.456;2023-02-28T03:10:34;7.60;47.80
11387;DHT22;5748;53.102;8.456;2023-02-28T03:13:14;7.60;48.00
11387;DHT22;5748;53.102;8.456;2023-02-28T03:15:57;7.50;47.40
11387;DHT22;5748;53.102;8.456;2023-02-28T03:18:38;10.10;49.50
11387;DHT22;5748;53.102;8.456;2023-02-28T03:21:14;10.00;49.80
11387;DHT22;5748;53.102;8.456;2023-02-28T03:23:53;7.50;47.50
11387;DHT22;5748;53.102;8.456;2023-02-28T03:26:26;7.50;47.50
11387;DHT22;5748;53.102;8.456;2023-02-28T03:28:58;9.80;50.40
11387;DHT22;5748;53.102;8.456;2023-02-28T03:31:33;10.40;49.70
11387;DHT22;5748;53.102;8.456;2023-02-28T03:34:14;10.90;50.70
11387;DHT22;5748;53.102;8.456;2023-02-28T03:36:49;7.50;48.40
11387;DHT22;5748;53.102;8.456;2023-02-28T03:39:21;8.00;48.60
11387;DHT22;5748;53.102;8.456;2023-02-28T03:41:54;7.50;48.20
11387;DHT22;5748;53.102;8.456;2023-02-28T03:44:29;7.50;48.20
11387;DHT22;5748;53.102;8.456;2023-02-28T03:47:02;7.90;48.60
11387;DHT22;5748;53.102;8.456;2023-02-28T03:49:35;7.50;48.20
11387;DHT22;5748;53.102;8.456;2023-02-28T03:52:08;7.50;48.20
11387;DHT22;5748;53.102;8.456;2023-02-28T03:54:41;7.50;48.20
11387;DHT22;5748;53.102;8.456;2023-02-28T03:57:13;8.50;49.10
11387;DHT22;5748;53.102;8.456;2023-02-28T03:59:45;8.20;48.80
11387;DHT22;5748;53.102;8.456;2023-02-28T04:02:15;7.50;48.30
11387;DHT22;5748;53.102;8.456;2023-02-28T04:04:42;7.50;48.20
11387;DHT22;5748;53.102;8.456;2023-02-28T04:07:15;7.50;48.20
11387;DHT22;5748;53.102;8.456;2023-02-28T04:09:43;7.50;48.40
11387;DHT22;5748;53.102;8.456;2023-02-28T04:12:10;7.50;48.30
11387;DHT22;5748;53.102;8.456;2023-02-28T04:14:37;7.50;48.50
11387;DHT22;5748;53.102;8.456;2023-02-28T04:17:04;7.50;48.40
11387;DHT22;5748;53.102;8.456;2023-02-28T04:19:31;9.90;50.40
11387;DHT22;5748;53.102;8.456;2023-02-28T04:21:58;10.90;51.70
11387;DHT22;5748;53.102;8.456;2023-02-28T04:24:27;7.50;49.00
11387;DHT22;5748;53.102;8.456;2023-02-28T04:26:56;7.60;49.40
11387;DHT22;5748;53.102;8.456;2023-02-28T04:29:25;8.50;49.30
11387;DHT22;5748;53.102;8.456;2023-02-28T04:31:53;7.50;48.50
11387;DHT22;5748;53.102;8.456;2023-02-28T04:34:23;7.50;48.40
11387;DHT22;5748;53.102;8.456;2023-02-28T04:36:51;7.50;48.40
11387;DHT22;5748;53.102;8.456;2023-02-28T04:39:20;8.50;49.20
11387;DHT22;5748;53.102;8.456;2023-02-28T04:41:49;7.50;48.20
11387;DHT22;5748;53.102;8.456;2023-02-28T04:44:17;7.80;48.80
11387;DHT22;5748;53.102;8.456;2023-02-28T04:46:44;7.50;48.50
11387;DHT22;5748;53.102;8.456;2023-02-28T04:49:12;7.50;48.50
11387;DHT22;5748;53.102;8.456;2023-02-28T04:51:40;7.50;48.50
11387;DHT22;5748;53.102;8.456;2023-02-28T04:54:42;7.50;48.30
11387;DHT22;5748;53.102;8.456;2023-02-28T04:57:14;7.60;50.10
11387;DHT22;5748;53.102;8.456;2023-02-28T04:59:41;7.20;50.00
11387;DHT22;5748;53.102;8.456;2023-02-28T05:02:08;9.70;51.00
11387;DHT22;5748;53.102;8.456;2023-02-28T05:04:36;7.40;48.50
11387;DHT22;5748;53.102;8.456;2023-02-28T05:07:03;7.40;48.80
11387;DHT22;5748;53.102;8.456;2023-02-28T05:09:31;7.40;48.60
11387;DHT22;5748;53.102;8.456;2023-02-28T05:12:11;7.40;48.60
11387;DHT22;5748;53.102;8.456;2023-02-28T05:14:45;7.40;49.00
11387;DHT22;5748;53.102;8.456;2023-02-28T05:17:15;7.40;49.00
11387;DHT22;5748;53.102;8.456;2023-02-28T05:19:42;7.40;49.20
11387;DHT22;5748;53.102;8.456;2023-02-28T05:22:13;8.60;49.80
11387;DHT22;5748;53.102;8.456;2023-02-28T05:27:15;7.30;48.40
11387;DHT22;5748;53.102;8.456;2023-02-28T05:29:43;7.30;49.00
11387;DHT22;5748;53.102;8.456;2023-02-28T05:34:38;7.30;48.90
11387;DHT22;5748;53.102;8.456;2023-02-28T05:37:05;7.50;49.00
11387;DHT22;5748;53.102;8.456;2023-02-28T05:39:33;7.30;48.90
11387;DHT22;5748;53.102;8.456;2023-02-28T05:42:02;7.30;48.70
11387;DHT22;5748;53.102;8.456;2023-02-28T05:44:30;7.30;48.90
11387;DHT22;5748;53.102;8.456;2023-02-28T05:46:58;7.60;49.10
11387;DHT22;5748;53.102;8.456;2023-02-28T05:49:28;7.30;48.70
11387;DHT22;5748;53.102;8.456;2023-02-28T05:52:00;7.30;48.80
11387;DHT22;5748;53.102;8.456;2023-02-28T05:54:27;7.10;49.40
11387;DHT22;5748;53.102;8.456;2023-02-28T05:56:54;9.00;51.40
11387;DHT22;5748;53.102;8.456;2023-02-28T05:59:56;7.10;49.20
11387;DHT22;5748;53.102;8.456;2023-02-28T06:02:24;7.10;49.60
11387;DHT22;5748;53.102;8.456;2023-02-28T06:04:51;7.40;49.10
11387;DHT22;5748;53.102;8.456;2023-02-28T06:07:18;7.40;49.10
11387;DHT22;5748;53.102;8.456;2023-02-28T06:09:45;7.10;49.20
11387;DHT22;5748;53.102;8.456;2023-02-28T06:19:39;6.80;47.90
11387;DHT22;5748;53.102;8.456;2023-02-28T06:22:09;5.90;48.40
11387;DHT22;5748;53.102;8.456;2023-02-28T06:24:36;6.70;48.40
11387;DHT22;5748;53.102;8.456;2023-02-28T06:29:33;6.70;48.00
11387;DHT22;5748;53.102;8.456;2023-02-28T06:32:01;8.50;50.30
11387;DHT22;5748;53.102;8.456;2023-02-28T06:34:28;6.60;48.50
11387;DHT22;5748;53.102;8.456;2023-02-28T06:36:57;6.60;48.50
11387;DHT22;5748;53.102;8.456;2023-02-28T06:39:27;6.60;48.50
11387;DHT22;5748;53.102;8.456;2023-02-28T06:41:54;6.50;48.70
11387;DHT22;5748;53.102;8.456;2023-02-28T06:44:22;6.50;48.50
11387;DHT22;5748;53.102;8.456;2023-02-28T06:46:50;6.50;48.60
11387;DHT22;5748;53.102;8.456;2023-02-28T06:49:36;6.50;48.50
11387;DHT22;5748;53.102;8.456;2023-02-28T06:52:05;7.10;49.70
11387;DHT22;5748;53.102;8.456;2023-02-28T06:54:34;6.80;49.00
11387;DHT22;5748;53.102;8.456;2023-02-28T06:57:03;6.50;48.90
11387;DHT22;5748;53.102;8.456;2023-02-28T06:59:30;6.50;48.90
11387;DHT22;5748;53.102;8.456;2023-02-28T07:01:57;6.60;49.00
11387;DHT22;5748;53.102;8.456;2023-02-28T07:04:24;6.60;49.10
11387;DHT22;5748;53.102;8.456;2023-02-28T07:06:51;6.20;48.80
11387;DHT22;5748;53.102;8.456;2023-02-28T07:09:19;6.90;49.30
11387;DHT22;5748;53.102;8.456;2023-02-28T07:11:59;6.60;49.40
11387;DHT22;5748;53.102;8.456;2023-02-28T07:14:26;8.90;51.20
11387;DHT22;5748;53.102;8.456;2023-02-28T07:16:53;6.70;48.90
11387;DHT22;5748;53.102;8.456;2023-02-28T07:19:20;6.80;49.00
11387;DHT22;5748;53.102;8.456;2023-02-28T07:21:48;6.60;48.80
11387;DHT22;5748;53.102;8.456;2023-02-28T07:24:15;6.60;48.80
11387;DHT22;5748;53.102;8.456;2023-02-28T07:26:44;6.60;48.80
11387;DHT22;5748;53.102;8.456;2023-02-28T07:29:12;6.60;49.00
11387;DHT22;5748;53.102;8.456;2023-02-28T07:31:39;6.60;49.40
11387;DHT22;5748;53.102;8.456;2023-02-28T07:34:06;6.70;49.20
11387;DHT22;5748;53.102;8.456;2023-02-28T07:36:33;6.60;50.60
11387;DHT22;5748;53.102;8.456;2023-02-28T07:39:00;6.80;50.50
11387;DHT22;5748;53.102;8.456;2023-02-28T07:41:28;6.90;50.70
11387;DHT22;5748;53.102;8.456;2023-02-28T07:43:56;7.20;50.60
11387;DHT22;5748;53.102;8.456;2023-02-28T07:46:25;7.80;51.20
11387;DHT22;5748;53.102;8.456;2023-02-28T07:48:54;7.60;51.00
11387;DHT22;5748;53.102;8.456;2023-02-28T07:51:24;7.80;50.70
11387;DHT22;5748;53.102;8.456;2023-02-28T07:53:51;8.10;49.60
11387;DHT22;5748;53.102;8.456;2023-02-28T07:56:18;8.20;49.40
11387;DHT22;5748;53.102;8.456;2023-02-28T07:58:46;8.20;50.50
11387;DHT22;5748;53.102;8.456;2023-02-28T08:01:14;8.30;49.10
11387;DHT22;5748;53.102;8.456;2023-02-28T08:03:42;8.60;49.80
11387;DHT22;5748;53.102;8.456;2023-02-28T08:06:16;7.90;51.80
11387;DHT22;5748;53.102;8.456;2023-02-28T08:11:12;9.20;51.90
11387;DHT22;5748;53.102;8.456;2023-02-28T08:13:39;9.60;53.80
11387;DHT22;5748;53.102;8.456;2023-02-28T08:16:07;8.60;54.40
11387;DHT22;5748;53.102;8.456;2023-02-28T08:18:43;11.10;51.60
11387;DHT22;5748;53.102;8.456;2023-02-28T08:21:11;11.70;52.40
11387;DHT22;5748;53.102;8.456;2023-02-28T08:23:38;13.20;55.10
11387;DHT22;5748;53.102;8.456;2023-02-28T08:26:19;13.90;54.90
11387;DHT22;5748;53.102;8.456;2023-02-28T08:29:20;12.80;51.30
11387;DHT22;5748;53.102;8.456;2023-02-28T08:34:16;13.80;49.90
11387;DHT22;5748;53.102;8.456;2023-02-28T08:39:11;14.70;50.50
11387;DHT22;5748;53.102;8.456;2023-02-28T08:41:38;15.80;50.50
11387;DHT22;5748;53.102;8.456;2023-02-28T08:44:06;15.80;50.80
11387;DHT22;5748;53.102;8.456;2023-02-28T08:46:34;15.80;50.60
11387;DHT22;5748;53.102;8.456;2023-02-28T08:49:01;16.20;50.90
11387;DHT22;5748;53.102;8.456;2023-02-28T08:51:30;16.40;49.80
11387;DHT22;5748;53.102;8.456;2023-02-28T08:53:59;16.70;48.80
11387;DHT22;5748;53.102;8.456;2023-02-28T08:56:28;17.00;48.40
11387;DHT22;5748;53.102;8.456;2023-02-28T08:58:56;17.30;49.30
11387;DHT22;5748;53.102;8.456;2023-02-28T09:01:25;17.60;48.00
11387;DHT22;5748;53.102;8.456;2023-02-28T09:03:54;17.80;46.70
11387;DHT22;5748;53.102;8.456;2023-02-28T09:06:23;18.10;47.20
11387;DHT22;5748;53.102;8.456;2023-02-28T09:08:56;18.10;47.50
11387;DHT22;5748;53.102;8.456;2023-02-28T09:11:25;18.20;46.70
11387;DHT22;5748;53.102;8.456;2023-02-28T09:13:52;18.40;47.60
11387;DHT22;5748;53.102;8.456;2023-02-28T09:16:21;18.60;48.10
11387;DHT22;5748;53.102;8.456;2023-02-28T09:18:48;18.70;48.40
11387;DHT22;5748;53.102;8.456;2023-02-28T09:21:17;19.00;49.00
11387;DHT22;5748;53.102;8.456;2023-02-28T09:23:46;19.20;48.10
11387;DHT22;5748;53.102;8.456;2023-02-28T09:26:26;19.50;47.90
11387;DHT22;5748;53.102;8.456;2023-02-28T09:28:54;19.70;44.20
11387;DHT22;5748;53.102;8.456;2023-02-28T09:31:23;19.90;46.90
11387;DHT22;5748;53.102;8.456;2023-02-28T09:33:53;20.00;46.20
11387;DHT22;5748;53.102;8.456;2023-02-28T09:36:22;20.20;46.50
11387;DHT22;5748;53.102;8.456;2023-02-28T09:38:49;20.40;47.80
11387;DHT22;5748;53.102;8.456;2023-02-28T09:41:20;20.60;47.10
11387;DHT22;5748;53.102;8.456;2023-02-28T09:43:52;20.80;46.70
11387;DHT22;5748;53.102;8.456;2023-02-28T09:46:29;21.20;46.20
11387;DHT22;5748;53.102;8.456;2023-02-28T09:49:00;21.40;44.20
11387;DHT22;5748;53.102;8.456;2023-02-28T09:51:35;21.50;44.10
11387;DHT22;5748;53.102;8.456;2023-02-28T09:54:14;21.60;43.70
11387;DHT22;5748;53.102;8.456;2023-02-28T09:56:45;21.70;43.90
11387;DHT22;5748;53.102;8.456;2023-02-28T09:59:22;21.70;45.00
11387;DHT22;5748;53.102;8.456;2023-02-28T10:02:02;21.90;44.80
11387;DHT22;5748;53.102;8.456;2023-02-28T10:04:43;22.00;44.20
11387;DHT22;5748;53.102;8.456;2023-02-28T10:07:22;22.20;42.10
11387;DHT22;5748;53.102;8.456;2023-02-28T10:10:04;22.30;43.20
11387;DHT22;5748;53.102;8.456;2023-02-28T10:12:44;22.40;44.00
11387;DHT22;5748;53.102;8.456;2023-02-28T10:15:15;22.60;44.60
11387;DHT22;5748;53.102;8.456;2023-02-28T10:17:47;22.80;44.90
11387;DHT22;5748;53.102;8.456;2023-02-28T10:20:20;23.20;45.50
11387;DHT22;5748;53.102;8.456;2023-02-28T10:22:58;23.20;44.30
11387;DHT22;5748;53.102;8.456;2023-02-28T10:25:34;23.40;44.70
11387;DHT22;5748;53.102;8.456;2023-02-28T10:28:10;23.60;45.10
11387;DHT22;5748;53.102;8.456;2023-02-28T10:30:41;24.00;42.10
11387;DHT22;5748;53.102;8.456;2023-02-28T10:33:20;24.10;41.80
11387;DHT22;5748;53.102;8.456;2023-02-28T10:35:49;24.10;40.80
11387;DHT22;5748;53.102;8.456;2023-02-28T10:38:18;24.10;41.70
11387;DHT22;5748;53.102;8.456;2023-02-28T10:40:47;24.10;42.20
11387;DHT22;5748;53.102;8.456;2023-02-28T10:43:22;24.10;42.40
11387;DHT22;5748;53.102;8.456;2023-02-28T10:46:03;24.20;41.80
11387;DHT22;5748;53.102;8.456;2023-02-28T10:48:37;24.20;40.60
11387;DHT22;5748;53.102;8.456;2023-02-28T10:51:06;24.20;40.10
11387;DHT22;5748;53.102;8.456;2023-02-28T10:53:39;24.10;39.40
11387;DHT22;5748;53.102;8.456;2023-02-28T10:56:17;23.90;40.20
11387;DHT22;5748;53.102;8.456;2023-02-28T10:58:50;23.70;39.20
11387;DHT22;5748;53.102;8.456;2023-02-28T11:01:22;23.50;37.60
11387;DHT22;5748;53.102;8.456;2023-02-28T11:03:51;23.30;38.20
11387;DHT22;5748;53.102;8.456;2023-02-28T11:06:21;23.00;37.40
11387;DHT22;5748;53.102;8.456;2023-02-28T11:08:52;22.70;36.80
11387;DHT22;5748;53.102;8.456;2023-02-28T11:11:24;22.40;36.90
11387;DHT22;5748;53.102;8.456;2023-02-28T11:13:54;22.00;36.80
11387;DHT22;5748;53.102;8.456;2023-02-28T11:16:32;21.70;36.00
11387;DHT22;5748;53.102;8.456;2023-02-28T11:19:01;21.40;36.10
11387;DHT22;5748;53.102;8.456;2023-02-28T11:21:31;21.10;36.70
11387;DHT22;5748;53.102;8.456;2023-02-28T11:24:03;20.90;36.90
11387;DHT22;5748;53.102;8.456;2023-02-28T11:26:40;20.70;37.30
11387;DHT22;5748;53.102;8.456;2023-02-28T11:29:20;20.60;37.80
11387;DHT22;5748;53.102;8.456;2023-02-28T11:32:09;20.60;37.20
11387;DHT22;5748;53.102;8.456;2023-02-28T11:34:41;20.60;37.70
11387;DHT22;5748;53.102;8.456;2023-02-28T11:37:12;20.70;38.90
11387;DHT22;5748;53.102;8.456;2023-02-28T11:39:40;20.80;39.40
11387;DHT22;5748;53.102;8.456;2023-02-28T11:42:29;20.90;40.00
11387;DHT22;5748;53.102;8.456;2023-02-28T11:45:15;21.10;37.60
11387;DHT22;5748;53.102;8.456;2023-02-28T11:48:01;21.30;33.80
11387;DHT22;5748;53.102;8.456;2023-02-28T11:50:42;21.50;37.20
11387;DHT22;5748;53.102;8.456;2023-02-28T11:53:19;21.50;38.10
11387;DHT22;5748;53.102;8.456;2023-02-28T11:55:56;21.60;39.10
11387;DHT22;5748;53.102;8.456;2023-02-28T11:58:35;21.90;38.50
11387;DHT22;5748;53.102;8.456;2023-02-28T12:01:15;22.10;38.80
11387;DHT22;5748;53.102;8.456;2023-02-28T12:03:58;22.40;39.10
11387;DHT22;5748;53.102;8.456;2023-02-28T12:06:36;22.70;38.50
11387;DHT22;5748;53.102;8.456;2023-02-28T12:09:20;23.30;38.80
11387;DHT22;5748;53.102;8.456;2023-02-28T12:12:06;23.60;38.70
11387;DHT22;5748;53.102;8.456;2023-02-28T12:15:01;23.50;39.00
11387;DHT22;5748;53.102;8.456;2023-02-28T12:17:41;23.80;37.40
11387;DHT22;5748;53.102;8.456;2023-02-28T12:20:30;24.00;38.10
11387;DHT22;5748;53.102;8.456;2023-02-28T12:23:19;24.20;37.20
11387;DHT22;5748;53.102;8.456;2023-02-28T12:25:58;24.30;37.20
11387;DHT22;5748;53.102;8.456;2023-02-28T12:28:31;24.50;37.70
11387;DHT22;5748;53.102;8.456;2023-02-28T12:31:04;24.80;37.80
11387;DHT22;5748;53.102;8.456;2023-02-28T12:34:01;24.60;35.90
11387;DHT22;5748;53.102;8.456;2023-02-28T12:36:34;24.90;36.00
11387;DHT22;5748;53.102;8.456;2023-02-28T12:39:06;24.60;35.30
11387;DHT22;5748;53.102;8.456;2023-02-28T12:41:40;24.70;36.30
11387;DHT22;5748;53.102;8.456;2023-02-28T12:44:12;24.30;33.70
11387;DHT22;5748;53.102;8.456;2023-02-28T12:46:43;24.20;34.50
11387;DHT22;5748;53.102;8.456;2023-02-28T12:49:15;24.00;35.30
11387;DHT22;5748;53.102;8.456;2023-02-28T12:51:46;23.60;34.60
11387;DHT22;5748;53.102;8.456;2023-02-28T12:54:21;23.40;35.70
11387;DHT22;5748;53.102;8.456;2023-02-28T12:56:56;23.50;34.20
11387;DHT22;5748;53.102;8.456;2023-02-28T12:59:30;23.40;34.60
11387;DHT22;5748;53.102;8.456;2023-02-28T13:05:46;23.20;33.80
11387;DHT22;5748;53.102;8.456;2023-02-28T13:08:53;23.10;33.50
11387;DHT22;5748;53.102;8.456;2023-02-28T13:11:30;22.90;32.90
11387;DHT22;5748;53.102;8.456;2023-02-28T13:14:00;22.80;34.50
11387;DHT22;5748;53.102;8.456;2023-02-28T13:16:49;22.40;33.20
11387;DHT22;5748;53.102;8.456;2023-02-28T13:19:22;22.30;33.00
11387;DHT22;5748;53.102;8.456;2023-02-28T13:21:51;22.10;33.80
11387;DHT22;5748;53.102;8.456;2023-02-28T13:24:45;21.80;33.20
11387;DHT22;5748;53.102;8.456;2023-02-28T13:27:45;21.40;32.80
11387;DHT22;5748;53.102;8.456;2023-02-28T13:33:29;20.70;32.70
11387;DHT22;5748;53.102;8.456;2023-02-28T13:36:10;20.40;34.00
11387;DHT22;5748;53.102;8.456;2023-02-28T13:38:50;20.10;33.40
11387;DHT22;5748;53.102;8.456;2023-02-28T13:41:45;19.90;33.50
11387;DHT22;5748;53.102;8.456;2023-02-28T13:44:18;19.60;31.20
11387;DHT22;5748;53.102;8.456;2023-02-28T13:47:20;19.00;32.00
11387;DHT22;5748;53.102;8.456;2023-02-28T13:49:51;18.70;32.10
11387;DHT22;5748;53.102;8.456;2023-02-28T13:52:22;18.60;33.40
11387;DHT22;5748;53.102;8.456;2023-02-28T13:55:25;18.50;33.70
11387;DHT22;5748;53.102;8.456;2023-02-28T13:58:07;18.20;32.90
11387;DHT22;5748;53.102;8.456;2023-02-28T14:00:59;18.10;32.80
11387;DHT22;5748;53.102;8.456;2023-02-28T14:03:44;17.80;32.20
11387;DHT22;5748;53.102;8.456;2023-02-28T14:06:47;17.80;32.90
11387;DHT22;5748;53.102;8.456;2023-02-28T14:09:23;17.70;32.20
11387;DHT22;5748;53.102;8.456;2023-02-28T14:11:52;17.70;33.10
11387;DHT22;5748;53.102;8.456;2023-02-28T14:14:56;17.50;33.60
11387;DHT22;5748;53.102;8.456;2023-02-28T14:17:24;17.50;32.60
11387;DHT22;5748;53.102;8.456;2023-02-28T14:19:52;17.40;32.90
11387;DHT22;5748;53.102;8.456;2023-02-28T14:22:39;17.40;33.50
11387;DHT22;5748;53.102;8.456;2023-02-28T14:25:21;17.30;32.60
11387;DHT22;5748;53.102;8.456;2023-02-28T14:27:55;17.20;32.80
11387;DHT22;5748;53.102;8.456;2023-02-28T14:30:59;17.00;32.00
11387;DHT22;5748;53.102;8.456;2023-02-28T14:37:05;16.40;31.50
11387;DHT22;5748;53.102;8.456;2023-02-28T14:39:40;16.20;31.80
11387;DHT22;5748;53.102;8.456;2023-02-28T14:42:25;16.00;32.10
11387;DHT22;5748;53.102;8.456;2023-02-28T14:45:02;15.80;32.00
11387;DHT22;5748;53.102;8.456;2023-02-28T14:47:33;15.70;32.90
11387;DHT22;5748;53.102;8.456;2023-02-28T14:50:27;15.70;33.30
11387;DHT22;5748;53.102;8.456;2023-02-28T14:52:57;15.80;33.00
11387;DHT22;5748;53.102;8.456;2023-02-28T14:55:28;15.80;33.20
11387;DHT22;5748;53.102;8.456;2023-02-28T14:57:57;15.90;33.50
11387;DHT22;5748;53.102;8.456;2023-02-28T15:00:26;15.90;33.50
11387;DHT22;5748;53.102;8.456;2023-02-28T15:03:28;15.80;33.10
11387;DHT22;5748;53.102;8.456;2023-02-28T15:05:59;15.80;33.40
11387;DHT22;5748;53.102;8.456;2023-02-28T15:08:28;15.70;32.50
11387;DHT22;5748;53.102;8.456;2023-02-28T15:10:59;15.60;32.80
11387;DHT22;5748;53.102;8.456;2023-02-28T15:13:38;15.50;32.80
11387;DHT22;5748;53.102;8.456;2023-02-28T15:16:11;15.50;32.80
11387;DHT22;5748;53.102;8.456;2023-02-28T15:19:04;16.20;34.50
11387;DHT22;5748;53.102;8.456;2023-02-28T15:21:34;15.30;32.60
11387;DHT22;5748;53.102;8.456;2023-02-28T15:24:06;15.30;33.10
11387;DHT22;5748;53.102;8.456;2023-02-28T15:26:39;15.40;33.00
11387;DHT22;5748;53.102;8.456;2023-02-28T15:29:13;15.30;33.20
11387;DHT22;5748;53.102;8.456;2023-02-28T15:31:44;15.30;33.40
11387;DHT22;5748;53.102;8.456;2023-02-28T15:34:18;15.30;33.60
11387;DHT22;5748;53.102;8.456;2023-02-28T15:36:55;15.30;33.40
11387;DHT22;5748;53.102;8.456;2023-02-28T15:39:24;15.50;33.30
11387;DHT22;5748;53.102;8.456;2023-02-28T15:42:09;15.50;33.60
11387;DHT22;5748;53.102;8.456;2023-02-28T15:44:37;15.70;33.60
11387;DHT22;5748;53.102;8.456;2023-02-28T15:47:06;15.20;33.90
11387;DHT22;5748;53.102;8.456;2023-02-28T15:49:45;15.20;33.10
11387;DHT22;5748;53.102;8.456;2023-02-28T15:52:16;15.10;33.00
11387;DHT22;5748;53.102;8.456;2023-02-28T15:54:46;15.80;33.70
11387;DHT22;5748;53.102;8.456;2023-02-28T15:57:17;14.80;32.60
11387;DHT22;5748;53.102;8.456;2023-02-28T15:59:51;14.70;32.40
11387;DHT22;5748;53.102;8.456;2023-02-28T16:02:21;14.70;32.90
11387;DHT22;5748;53.102;8.456;2023-02-28T16:04:58;14.60;32.70
11387;DHT22;5748;53.102;8.456;2023-02-28T16:07:27;14.40;32.50
11387;DHT22;5748;53.102;8.456;2023-02-28T16:09:55;14.30;32.60
11387;DHT22;5748;53.102;8.456;2023-02-28T16:12:26;14.20;32.70
11387;DHT22;5748;53.102;8.456;2023-02-28T16:14:55;14.00;32.80
11387;DHT22;5748;53.102;8.456;2023-02-28T16:17:25;13.90;32.90
11387;DHT22;5748;53.102;8.456;2023-02-28T16:20:11;13.70;32.80
11387;DHT22;5748;53.102;8.456;2023-02-28T16:22:40;13.60;32.90
11387;DHT22;5748;53.102;8.456;2023-02-28T16:25:12;14.50;33.80
11387;DHT22;5748;53.102;8.456;2023-02-28T16:27:41;13.30;33.00
11387;DHT22;5748;53.102;8.456;2023-02-28T16:30:18;14.40;34.10
11387;DHT22;5748;53.102;8.456;2023-02-28T16:32:46;13.10;33.10
11387;DHT22;5748;53.102;8.456;2023-02-28T16:35:15;13.00;33.20
11387;DHT22;5748;53.102;8.456;2023-02-28T16:37:51;12.90;33.20
11387;DHT22;5748;53.102;8.456;2023-02-28T16:40:22;12.90;33.40
11387;DHT22;5748;53.102;8.456;2023-02-28T16:42:52;12.80;33.40
11387;DHT22;5748;53.102;8.456;2023-02-28T16:45:22;12.70;33.40
11387;DHT22;5748;53.102;8.456;2023-02-28T16:47:52;12.70;33.40
11387;DHT22;5748;53.102;8.456;2023-02-28T16:50:24;12.60;33.80
11387;DHT22;5748;53.102;8.456;2023-02-28T16:52:52;12.50;33.50
11387;DHT22;5748;53.102;8.456;2023-02-28T16:55:21;14.10;34.90
11387;DHT22;5748;53.102;8.456;2023-02-28T16:57:52;12.50;33.70
11387;DHT22;5748;53.102;8.456;2023-02-28T17:00:30;12.30;33.70
11387;DHT22;5748;53.102;8.456;2023-02-28T17:03:10;12.30;33.80
11387;DHT22;5748;53.102;8.456;2023-02-28T17:05:55;12.10;33.20
11387;DHT22;5748;53.102;8.456;2023-02-28T17:08:37;12.10;33.70
11387;DHT22;5748;53.102;8.456;2023-02-28T17:11:23;12.00;33.90
11387;DHT22;5748;53.102;8.456;2023-02-28T17:13:51;11.90;33.90
11387;DHT22;5748;53.102;8.456;2023-02-28T17:16:23;11.80;33.80
11387;DHT22;5748;53.102;8.456;2023-02-28T17:18:55;11.70;33.90
11387;DHT22;5748;53.102;8.456;2023-02-28T17:21:37;11.60;33.90
11387;DHT22;5748;53.102;8.456;2023-02-28T17:24:05;11.50;34.10
11387;DHT22;5748;53.102;8.456;2023-02-28T17:26:32;11.40;33.90